Time;durP1;ratioP1;P1;durP2;ratioP2;P2;SDS_P1;SDS_P2;PMS_P1;PMS_P2;Temp;Humidity;BMP_temperature;BMP_pressure;BME280_temperature;BME280_humidity;BME280_pressure;Samples;Min_cycle;Max_cycle;Signal;HPM_P1;HPM_P2
2022/11/04 00:01:14;;;;;;;3.55;1.00;;;;;;;;;;5039656;28;20068;-70
2022/11/04 00:03:40;;;;;;;1.80;0.70;;;;;;;;;;5040110;28;20060;-70
2022/11/04 00:06:06;;;;;;;3.35;1.00;;;;;;;;;;5038195;28;20402;-70
2022/11/04 00:08:32;;;;;;;1.70;0.30;;;;;;;;;;5013965;28;20486;-70
2022/11/04 00:13:44;;;;;;;1.40;0.40;;;;;;;;;;5036412;28;20040;-70
2022/11/04 00:18:55;;;;;;;2.03;0.57;;;;;;;;;;5038210;28;20432;-71
2022/11/04 00:29:37;;;;;;;4.88;0.40;;;;;;;;;;5033817;28;20036;-70
2022/11/04 00:34:47;;;;;;;3.00;0.80;;;;;;;;;;5039989;28;20421;-70
2022/11/04 00:37:13;;;;;;;1.85;0.40;;;;;;;;;;5044882;28;20032;-70
2022/11/04 00:39:39;;;;;;;1.20;0.50;;;;;;;;;;5035845;28;20067;-71
2022/11/04 00:42:05;;;;;;;2.58;0.82;;;;;;;;;;5045981;28;20497;-70
2022/11/04 00:44:31;;;;;;;9.38;2.47;;;;;;;;;;5035759;28;20036;-71
2022/11/04 00:46:57;;;;;;;6.13;1.65;;;;;;;;;;5043408;28;20091;-71
2022/11/04 00:49:23;;;;;;;7.18;1.70;;;;;;;;;;5039686;28;20765;-70
2022/11/04 00:51:49;;;;;;;4.82;1.50;;;;;;;;;;5048099;28;20071;-70
2022/11/04 00:54:15;;;;;;;5.97;1.27;;;;;;;;;;5044930;28;20539;-71
2022/11/04 00:56:41;;;;;;;3.97;1.20;;;;;;;;;;5042414;28;20104;-70
2022/11/04 00:59:07;;;;;;;1.77;0.68;;;;;;;;;;5044305;28;20073;-70
2022/11/04 01:01:33;;;;;;;1.30;0.40;;;;;;;;;;5038868;28;20033;-70
2022/11/04 01:03:59;;;;;;;1.85;0.47;;;;;;;;;;5037799;28;20483;-70
2022/11/04 01:06:26;;;;;;;1.02;0.40;;;;;;;;;;5043995;28;20056;-70
2022/11/04 01:08:56;;;;;;;1.42;0.40;;;;;;;;;;5037125;28;20482;-70
2022/11/04 01:11:22;;;;;;;0.90;0.38;;;;;;;;;;5040574;28;20511;-70
2022/11/04 01:13:51;;;;;;;1.65;0.50;;;;;;;;;;5047293;28;20044;-71
2022/11/04 01:16:17;;;;;;;2.38;0.63;;;;;;;;;;5039379;28;20032;-70
2022/11/04 01:18:43;;;;;;;4.18;1.40;;;;;;;;;;5038653;28;20033;-70
2022/11/04 01:21:13;;;;;;;2.05;0.80;;;;;;;;;;5044012;28;20033;-71
2022/11/04 01:23:40;;;;;;;3.20;0.93;;;;;;;;;;5041219;28;20063;-70
2022/11/04 01:26:11;;;;;;;3.22;0.95;;;;;;;;;;5037624;28;20387;-70
2022/11/04 01:28:37;;;;;;;5.57;1.33;;;;;;;;;;5048557;28;20029;-70
2022/11/04 01:31:07;;;;;;;2.80;1.10;;;;;;;;;;5039403;28;20891;-70
2022/11/04 01:33:33;;;;;;;3.80;1.38;;;;;;;;;;5038990;28;20033;-71
2022/11/04 01:36:00;;;;;;;3.03;1.20;;;;;;;;;;5024555;28;20106;-70
2022/11/04 01:38:26;;;;;;;6.72;1.42;;;;;;;;;;5048050;28;20383;-71
2022/11/04 01:40:52;;;;;;;1.83;0.70;;;;;;;;;;5034874;28;20036;-71
2022/11/04 01:43:19;;;;;;;5.28;0.90;;;;;;;;;;5045403;28;20649;-70
2022/11/04 01:45:47;;;;;;;3.30;1.10;;;;;;;;;;5041652;28;20476;-70
2022/11/04 01:48:21;;;;;;;4.20;1.33;;;;;;;;;;5043947;28;20029;-70
2022/11/04 01:50:49;;;;;;;3.97;1.30;;;;;;;;;;5036619;28;20052;-70
2022/11/04 01:53:18;;;;;;;2.70;0.98;;;;;;;;;;5041793;28;20528;-70
2022/11/04 01:55:47;;;;;;;5.03;0.52;;;;;;;;;;5039273;28;20123;-70
2022/11/04 01:58:15;;;;;;;2.83;0.40;;;;;;;;;;5042814;28;20107;-71
2022/11/04 02:00:42;;;;;;;4.18;0.70;;;;;;;;;;5038425;28;20044;-70
2022/11/04 02:03:11;;;;;;;3.22;0.47;;;;;;;;;;5035518;28;20516;-70
2022/11/04 02:05:38;;;;;;;2.85;0.95;;;;;;;;;;5039933;28;20029;-70
2022/11/04 02:08:05;;;;;;;2.33;0.60;;;;;;;;;;5042063;28;20032;-70
2022/11/04 02:10:31;;;;;;;2.40;0.63;;;;;;;;;;5041816;28;20033;-70
2022/11/04 02:12:59;;;;;;;2.25;0.60;;;;;;;;;;5037400;28;20029;-71
2022/11/04 02:15:35;;;;;;;1.65;0.50;;;;;;;;;;5042979;28;20064;-71
2022/11/04 02:18:13;;;;;;;2.22;0.55;;;;;;;;;;5040033;28;20138;-70
2022/11/04 02:20:47;;;;;;;2.55;0.40;;;;;;;;;;5043515;28;20037;-71
2022/11/04 02:23:13;;;;;;;2.42;0.40;;;;;;;;;;5042566;28;20036;-71
2022/11/04 02:25:57;;;;;;;1.58;0.60;;;;;;;;;;5044680;28;20032;-70
2022/11/04 02:28:26;;;;;;;1.45;0.40;;;;;;;;;;5039214;28;20033;-70
2022/11/04 02:30:52;;;;;;;2.17;0.50;;;;;;;;;;5040042;28;20040;-71
2022/11/04 02:33:24;;;;;;;1.50;0.73;;;;;;;;;;5038669;28;20091;-71
2022/11/04 02:35:50;;;;;;;3.00;0.73;;;;;;;;;;5040283;28;20404;-70
2022/11/04 02:38:34;;;;;;;4.10;1.00;;;;;;;;;;5034627;28;20057;-70
2022/11/04 02:41:00;;;;;;;3.20;0.60;;;;;;;;;;5040824;28;20048;-70
2022/11/04 02:43:32;;;;;;;1.60;0.50;;;;;;;;;;5034381;28;20036;-70
2022/11/04 02:46:18;;;;;;;2.00;0.50;;;;;;;;;;5046677;28;20053;-70
2022/11/04 02:48:52;;;;;;;2.78;0.70;;;;;;;;;;5039584;28;20033;-70
2022/11/04 02:51:24;;;;;;;3.05;0.60;;;;;;;;;;5045906;28;20069;-70
2022/11/04 02:53:56;;;;;;;4.47;0.68;;;;;;;;;;5033062;28;20128;-70
2022/11/04 02:56:23;;;;;;;6.93;1.40;;;;;;;;;;5041900;28;20025;-70
2022/11/04 02:58:55;;;;;;;3.78;1.50;;;;;;;;;;5034390;28;20037;-70
2022/11/04 03:01:23;;;;;;;4.72;2.28;;;;;;;;;;5043880;28;20043;-70
2022/11/04 03:03:53;;;;;;;4.40;1.30;;;;;;;;;;5010920;28;20144;-70
2022/11/04 03:06:21;;;;;;;4.75;1.83;;;;;;;;;;5041122;28;20070;-71
2022/11/04 03:08:48;;;;;;;3.03;1.15;;;;;;;;;;5039626;28;20851;-71
2022/11/04 03:11:16;;;;;;;3.10;1.42;;;;;;;;;;5038220;28;20040;-70
2022/11/04 03:13:46;;;;;;;7.03;3.25;;;;;;;;;;5039388;28;20039;-70
2022/11/04 03:16:18;;;;;;;6.75;3.53;;;;;;;;;;5023211;28;20063;-71
2022/11/04 03:18:53;;;;;;;4.40;2.38;;;;;;;;;;5041700;28;20489;-71
2022/11/04 03:21:20;;;;;;;7.05;2.75;;;;;;;;;;5044132;28;20112;-71
2022/11/04 03:23:46;;;;;;;4.93;3.13;;;;;;;;;;5038746;28;20036;-70
2022/11/04 03:26:21;;;;;;;4.95;3.03;;;;;;;;;;5036747;28;20039;-70
2022/11/04 03:29:06;;;;;;;5.07;2.78;;;;;;;;;;5035180;28;20169;-71
2022/11/04 03:31:39;;;;;;;9.00;3.10;;;;;;;;;;5038230;28;20035;-70
2022/11/04 03:34:05;;;;;;;9.50;2.67;;;;;;;;;;5038551;28;20385;-70
2022/11/04 03:36:31;;;;;;;4.32;2.25;;;;;;;;;;5032234;28;20141;-70
2022/11/04 03:38:57;;;;;;;5.07;2.15;;;;;;;;;;5036368;28;20033;-71
2022/11/04 03:41:35;;;;;;;8.48;3.80;;;;;;;;;;5036962;28;20063;-70
2022/11/04 03:44:01;;;;;;;5.15;2.65;;;;;;;;;;5037633;28;20450;-70
2022/11/04 03:46:27;;;;;;;3.83;1.65;;;;;;;;;;5036725;28;20037;-70
2022/11/04 03:48:54;;;;;;;4.32;2.50;;;;;;;;;;5029089;28;20406;-70
2022/11/04 03:51:20;;;;;;;6.70;1.83;;;;;;;;;;5034320;28;20120;-70
2022/11/04 03:53:46;;;;;;;4.65;1.50;;;;;;;;;;5026983;28;20131;-71
2022/11/04 03:56:31;;;;;;;3.83;0.68;;;;;;;;;;5041287;28;20047;-71
2022/11/04 03:59:03;;;;;;;5.90;2.05;;;;;;;;;;5035982;28;20048;-70
2022/11/04 04:01:50;;;;;;;4.40;2.35;;;;;;;;;;5037040;28;20040;-70
2022/11/04 04:04:20;;;;;;;6.78;4.03;;;;;;;;;;5042260;28;20045;-70
2022/11/04 04:06:46;;;;;;;9.00;6.32;;;;;;;;;;5034400;28;20030;-70
2022/11/04 04:09:14;;;;;;;5.53;3.17;;;;;;;;;;5045123;28;20474;-70
2022/11/04 04:11:53;;;;;;;6.93;4.35;;;;;;;;;;5033980;28;20033;-70
2022/11/04 04:14:38;;;;;;;8.88;4.47;;;;;;;;;;5040585;28;20033;-70
2022/11/04 04:17:17;;;;;;;4.40;1.70;;;;;;;;;;5032976;28;20083;-71
2022/11/04 04:19:45;;;;;;;3.53;1.45;;;;;;;;;;5037467;28;20863;-70
2022/11/04 04:22:14;;;;;;;2.20;0.90;;;;;;;;;;5040000;28;20060;-70
2022/11/04 04:27:32;;;;;;;3.95;2.17;;;;;;;;;;5039317;28;20696;-71
2022/11/04 04:30:03;;;;;;;4.55;2.50;;;;;;;;;;5043794;28;20036;-70
2022/11/04 04:32:32;;;;;;;4.97;1.63;;;;;;;;;;5038933;28;20037;-70
2022/11/04 04:37:44;;;;;;;2.60;1.30;;;;;;;;;;5038871;28;20036;-70
2022/11/04 04:45:42;;;;;;;4.35;1.25;;;;;;;;;;5041245;28;20119;-71
2022/11/04 04:48:09;;;;;;;3.75;1.40;;;;;;;;;;5039330;28;20729;-70
2022/11/04 04:50:37;;;;;;;6.93;1.40;;;;;;;;;;5045956;28;20124;-70
2022/11/04 04:53:03;;;;;;;2.25;0.88;;;;;;;;;;5034146;28;20033;-70
2022/11/04 04:55:30;;;;;;;3.78;1.58;;;;;;;;;;5036890;28;20041;-71
2022/11/04 04:57:56;;;;;;;4.10;1.42;;;;;;;;;;5034975;28;20040;-71
2022/11/04 05:00:23;;;;;;;4.80;1.15;;;;;;;;;;5040555;28;20419;-70
2022/11/04 05:02:49;;;;;;;5.05;1.70;;;;;;;;;;5039902;28;20132;-70
2022/11/04 05:05:15;;;;;;;8.90;2.13;;;;;;;;;;5043773;28;20033;-71
2022/11/04 05:07:41;;;;;;;4.07;1.70;;;;;;;;;;5033594;28;20136;-70
2022/11/04 05:10:09;;;;;;;4.13;1.27;;;;;;;;;;5033931;28;20079;-71
2022/11/04 05:15:34;;;;;;;5.30;1.13;;;;;;;;;;5016748;28;20726;-70
2022/11/04 05:18:02;;;;;;;4.43;1.20;;;;;;;;;;5042655;28;20497;-70
2022/11/04 05:20:29;;;;;;;3.08;1.08;;;;;;;;;;5046239;28;20072;-71
2022/11/04 05:22:55;;;;;;;4.55;1.00;;;;;;;;;;5043836;28;20033;-70
2022/11/04 05:25:21;;;;;;;4.50;2.25;;;;;;;;;;5050112;28;20489;-71
2022/11/04 05:27:47;;;;;;;2.50;1.13;;;;;;;;;;5037637;28;20037;-70
2022/11/04 05:30:13;;;;;;;3.03;1.15;;;;;;;;;;5045301;28;20116;-70
2022/11/04 05:32:39;;;;;;;4.88;1.13;;;;;;;;;;5041705;28;20043;-71
2022/11/04 05:35:05;;;;;;;6.00;2.15;;;;;;;;;;5046365;28;20029;-71
2022/11/04 05:37:31;;;;;;;3.03;0.93;;;;;;;;;;5032939;28;20072;-70
2022/11/04 05:39:57;;;;;;;4.72;1.25;;;;;;;;;;5036678;28;20033;-70
2022/11/04 05:42:23;;;;;;;3.58;1.30;;;;;;;;;;5038415;28;20539;-70
2022/11/04 05:44:49;;;;;;;4.15;1.63;;;;;;;;;;5041322;28;20127;-71
2022/11/04 05:47:16;;;;;;;3.50;1.38;;;;;;;;;;5039762;28;20132;-71
2022/11/04 05:49:42;;;;;;;5.45;1.20;;;;;;;;;;5030910;28;20519;-71
2022/11/04 05:52:08;;;;;;;6.00;2.38;;;;;;;;;;5034900;28;20252;-71
2022/11/04 05:54:37;;;;;;;11.15;2.50;;;;;;;;;;5034000;28;20033;-71
2022/11/04 05:57:03;;;;;;;7.90;2.97;;;;;;;;;;5041470;28;20616;-70
2022/11/04 05:59:29;;;;;;;7.47;2.22;;;;;;;;;;5036792;28;20190;-70
2022/11/04 06:01:55;;;;;;;5.25;1.67;;;;;;;;;;5041957;28;20133;-71
2022/11/04 06:04:21;;;;;;;6.95;2.58;;;;;;;;;;5041505;28;20032;-71
2022/11/04 06:06:47;;;;;;;7.15;1.83;;;;;;;;;;5040467;28;20025;-71
2022/11/04 06:09:13;;;;;;;5.82;2.35;;;;;;;;;;5042848;28;20040;-71
2022/11/04 06:11:39;;;;;;;6.30;2.45;;;;;;;;;;5045251;28;20836;-71
2022/11/04 06:14:05;;;;;;;9.82;4.15;;;;;;;;;;5044960;28;20067;-71
2022/11/04 06:16:31;;;;;;;7.13;2.53;;;;;;;;;;5026314;28;20025;-70
2022/11/04 06:18:57;;;;;;;8.52;2.92;;;;;;;;;;5023503;28;20038;-70
2022/11/04 06:21:24;;;;;;;6.38;2.70;;;;;;;;;;5035528;28;20028;-71
2022/11/04 06:23:50;;;;;;;6.00;2.45;;;;;;;;;;5038959;28;20041;-70
2022/11/04 06:26:16;;;;;;;7.38;3.03;;;;;;;;;;5038006;28;20029;-70
2022/11/04 06:28:42;;;;;;;5.43;2.10;;;;;;;;;;5040137;28;20391;-70
2022/11/04 06:31:09;;;;;;;8.25;2.05;;;;;;;;;;5038439;28;20033;-70
2022/11/04 06:33:35;;;;;;;7.75;2.70;;;;;;;;;;5040903;28;20029;-70
2022/11/04 06:36:02;;;;;;;5.60;2.70;;;;;;;;;;5039286;28;20422;-70
2022/11/04 06:38:32;;;;;;;9.30;2.72;;;;;;;;;;5038637;28;20036;-70
2022/11/04 06:40:58;;;;;;;6.10;2.03;;;;;;;;;;5034964;28;20040;-70
2022/11/04 06:43:25;;;;;;;7.88;2.60;;;;;;;;;;5041793;28;20033;-70
2022/11/04 06:45:57;;;;;;;7.80;3.00;;;;;;;;;;5041419;28;20061;-71
2022/11/04 06:48:24;;;;;;;7.00;2.83;;;;;;;;;;5041987;28;20039;-70
2022/11/04 06:50:50;;;;;;;6.97;2.35;;;;;;;;;;5040118;28;20041;-70
2022/11/04 06:53:16;;;;;;;9.57;3.50;;;;;;;;;;5037852;28;20724;-70
2022/11/04 06:55:42;;;;;;;5.68;2.13;;;;;;;;;;5035430;28;20029;-70
2022/11/04 06:58:08;;;;;;;6.78;2.35;;;;;;;;;;5042612;28;20141;-71
2022/11/04 07:00:34;;;;;;;8.32;3.08;;;;;;;;;;5040728;28;20797;-70
2022/11/04 07:03:00;;;;;;;6.25;1.63;;;;;;;;;;5038184;28;20037;-70
2022/11/04 07:05:26;;;;;;;5.43;1.58;;;;;;;;;;5034185;28;20037;-70
2022/11/04 07:07:52;;;;;;;5.85;1.85;;;;;;;;;;5038621;28;20033;-70
2022/11/04 07:10:18;;;;;;;2.60;1.10;;;;;;;;;;5040096;28;20036;-70
2022/11/04 07:12:44;;;;;;;4.70;1.50;;;;;;;;;;5039932;28;20044;-70
2022/11/04 07:15:11;;;;;;;4.82;1.77;;;;;;;;;;5035793;28;20037;-75
2022/11/04 07:17:37;;;;;;;9.32;1.95;;;;;;;;;;5028839;28;20032;-76
2022/11/04 07:20:04;;;;;;;8.52;2.38;;;;;;;;;;5028684;28;20033;-77
2022/11/04 07:22:30;;;;;;;8.90;3.25;;;;;;;;;;5024457;28;20089;-76
2022/11/04 07:24:56;;;;;;;9.70;3.50;;;;;;;;;;5022377;28;20120;-76
2022/11/04 07:30:20;;;;;;;12.05;3.45;;;;;;;;;;5039696;28;20148;-76
2022/11/04 07:32:53;;;;;;;12.32;4.75;;;;;;;;;;5005722;28;20140;-76
2022/11/04 07:36:26;;;;;;;7.50;3.58;;;;;;;;;;4984710;28;20086;-77
2022/11/04 07:39:21;;;;;;;13.15;5.13;;;;;;;;;;5040070;28;20055;-76
2022/11/04 07:45:18;;;;;;;19.75;9.93;;;;;;;;;;5054915;28;20031;-77
2022/11/04 07:48:04;;;;;;;;;;;;;;;;;;;;;
2022/11/04 07:56:46;;;;;;;19.60;6.18;;;;;;;;;;5065776;28;20401;-77
2022/11/04 07:59:12;;;;;;;13.93;5.72;;;;;;;;;;5083914;28;20037;-76
2022/11/04 08:01:49;;;;;;;11.82;5.95;;;;;;;;;;5061890;28;20138;-76
2022/11/04 08:04:20;;;;;;;6.80;3.17;;;;;;;;;;5061333;28;20038;-76
2022/11/04 08:09:49;;;;;;;15.40;3.90;;;;;;;;;;5082048;28;20096;-76
2022/11/04 08:12:27;;;;;;;8.90;3.88;;;;;;;;;;5058362;28;20457;-76
2022/11/04 08:15:08;;;;;;;10.68;4.95;;;;;;;;;;5037408;28;20045;-76
2022/11/04 08:17:34;;;;;;;17.05;9.63;;;;;;;;;;5062915;28;20477;-76
2022/11/04 08:20:00;;;;;;;43.67;20.75;;;;;;;;;;5066013;28;20059;-76
2022/11/04 08:22:26;;;;;;;70.72;40.08;;;;;;;;;;5065734;28;20051;-76
2022/11/04 08:24:52;;;;;;;64.30;39.70;;;;;;;;;;5047159;28;20049;-75
2022/11/04 08:27:23;;;;;;;28.33;15.45;;;;;;;;;;5063189;28;20058;-76
2022/11/04 08:30:02;;;;;;;8.43;3.08;;;;;;;;;;5061899;28;20140;-75
2022/11/04 08:32:30;;;;;;;3.33;1.08;;;;;;;;;;5037985;28;20076;-76
2022/11/04 08:34:56;;;;;;;5.72;1.90;;;;;;;;;;5027917;28;20576;-77
2022/11/04 08:46:37;;;;;;;6.30;0.98;;;;;;;;;;5151137;23;20052;-76
2022/11/04 08:49:27;;;;;;;5.35;1.65;;;;;;;;;;5055664;28;20517;-76
2022/11/04 08:52:00;;;;;;;5.25;1.90;;;;;;;;;;5081631;28;20537;-76
2022/11/04 08:54:43;;;;;;;5.97;1.85;;;;;;;;;;5055405;28;20043;-76
2022/11/04 08:57:30;;;;;;;8.75;1.77;;;;;;;;;;5056590;28;20033;-76
2022/11/04 09:00:02;;;;;;;7.32;1.70;;;;;;;;;;5078127;28;20060;-75
2022/11/04 09:02:30;;;;;;;7.15;1.42;;;;;;;;;;5077596;28;20043;-75
2022/11/04 09:04:56;;;;;;;6.78;1.80;;;;;;;;;;5079797;28;20039;-74
2022/11/04 09:07:22;;;;;;;9.30;2.58;;;;;;;;;;5081822;28;20455;-74
2022/11/04 09:09:48;;;;;;;5.55;1.67;;;;;;;;;;5082383;28;20063;-75
2022/11/04 09:12:14;;;;;;;7.97;2.17;;;;;;;;;;5086330;28;20428;-76
2022/11/04 09:14:40;;;;;;;9.63;2.40;;;;;;;;;;5084531;28;20047;-75
2022/11/04 09:17:06;;;;;;;12.20;1.90;;;;;;;;;;5086160;28;20024;-76
2022/11/04 09:19:32;;;;;;;5.22;1.77;;;;;;;;;;5088315;28;20032;-75
2022/11/04 09:21:58;;;;;;;5.20;1.38;;;;;;;;;;5087485;28;20103;-75
2022/11/04 09:24:24;;;;;;;11.50;2.60;;;;;;;;;;5088571;28;20025;-75
2022/11/04 09:26:50;;;;;;;6.70;1.70;;;;;;;;;;5078350;28;20038;-76
2022/11/04 09:29:16;;;;;;;10.23;2.15;;;;;;;;;;5085716;28;20036;-75
2022/11/04 09:31:42;;;;;;;6.82;3.45;;;;;;;;;;5078544;28;20063;-75
2022/11/04 09:34:08;;;;;;;6.10;2.03;;;;;;;;;;5082691;28;20454;-76
2022/11/04 09:36:34;;;;;;;6.18;1.50;;;;;;;;;;5077619;28;20534;-75
2022/11/04 09:39:00;;;;;;;7.35;2.97;;;;;;;;;;5079448;28;20519;-75
2022/11/04 09:41:29;;;;;;;7.85;2.65;;;;;;;;;;5077290;28;20040;-76
2022/11/04 09:44:08;;;;;;;7.97;2.05;;;;;;;;;;5088957;28;20051;-75
2022/11/04 09:46:34;;;;;;;7.72;2.08;;;;;;;;;;5084991;28;20085;-75
2022/11/04 09:49:02;;;;;;;3.65;0.88;;;;;;;;;;5086807;28;20075;-75
2022/11/04 09:51:29;;;;;;;5.90;1.20;;;;;;;;;;5085466;28;20032;-75
2022/11/04 09:53:58;;;;;;;5.53;1.42;;;;;;;;;;5085217;28;20051;-75
2022/11/04 09:56:33;;;;;;;5.53;1.30;;;;;;;;;;5081470;28;20151;-75
2022/11/04 09:59:01;;;;;;;8.98;1.75;;;;;;;;;;5079699;28;20033;-75
2022/11/04 10:01:37;;;;;;;5.88;1.70;;;;;;;;;;5085151;28;20087;-75
2022/11/04 10:04:15;;;;;;;6.97;2.22;;;;;;;;;;5087000;28;20078;-75
2022/11/04 10:06:41;;;;;;;9.50;2.53;;;;;;;;;;5088058;28;20034;-75
2022/11/04 10:09:16;;;;;;;6.80;2.17;;;;;;;;;;5082097;28;20111;-75
2022/11/04 10:11:42;;;;;;;5.55;1.60;;;;;;;;;;5087859;28;20048;-75
2022/11/04 10:14:11;;;;;;;7.05;1.90;;;;;;;;;;5082328;28;20083;-76
2022/11/04 10:16:40;;;;;;;4.93;1.60;;;;;;;;;;5081533;28;20020;-75
2022/11/04 10:19:12;;;;;;;8.45;2.55;;;;;;;;;;5080673;28;20032;-75
2022/11/04 10:21:46;;;;;;;9.40;3.78;;;;;;;;;;5081037;28;20146;-74
2022/11/04 10:24:15;;;;;;;7.53;2.50;;;;;;;;;;5086123;28;20481;-74
2022/11/04 10:26:44;;;;;;;7.90;3.03;;;;;;;;;;5077976;28;20020;-74
2022/11/04 10:29:15;;;;;;;8.23;2.88;;;;;;;;;;5074893;28;20123;-74
2022/11/04 10:31:42;;;;;;;8.68;2.70;;;;;;;;;;5080323;28;20056;-73
2022/11/04 10:34:14;;;;;;;6.38;2.55;;;;;;;;;;5083255;28;20728;-74
2022/11/04 10:36:40;;;;;;;8.98;2.50;;;;;;;;;;5079607;28;20052;-74
2022/11/04 10:39:17;;;;;;;8.57;2.72;;;;;;;;;;5085868;28;20098;-74
2022/11/04 10:41:44;;;;;;;8.02;3.40;;;;;;;;;;5083585;28;20025;-74
2022/11/04 10:44:14;;;;;;;8.55;2.75;;;;;;;;;;5081147;28;20024;-74
2022/11/04 10:46:40;;;;;;;5.80;1.60;;;;;;;;;;5081781;28;20044;-74
2022/11/04 10:49:25;;;;;;;7.70;2.92;;;;;;;;;;5086083;28;20047;-73
2022/11/04 10:51:51;;;;;;;7.25;2.60;;;;;;;;;;5082458;28;20481;-74
2022/11/04 10:54:18;;;;;;;11.75;2.70;;;;;;;;;;5079321;28;20985;-74
2022/11/04 10:56:49;;;;;;;6.72;2.55;;;;;;;;;;5080488;28;20028;-74
2022/11/04 10:59:26;;;;;;;10.50;2.83;;;;;;;;;;5081669;28;20035;-74
2022/11/04 11:01:54;;;;;;;8.40;3.03;;;;;;;;;;5076654;28;20058;-74
2022/11/04 11:04:48;;;;;;;10.63;2.80;;;;;;;;;;5078301;28;20062;-74
2022/11/04 11:07:21;;;;;;;8.25;3.10;;;;;;;;;;5075847;28;20040;-74
2022/11/04 11:09:48;;;;;;;9.40;3.03;;;;;;;;;;5085327;28;20411;-74
2022/11/04 11:12:15;;;;;;;7.97;2.83;;;;;;;;;;5074011;28;20031;-74
2022/11/04 11:14:42;;;;;;;10.50;2.13;;;;;;;;;;5079774;28;20123;-74
2022/11/04 11:17:13;;;;;;;7.20;2.30;;;;;;;;;;5078976;28;20035;-74
2022/11/04 11:19:55;;;;;;;9.90;2.25;;;;;;;;;;5071326;28;20036;-74
2022/11/04 11:22:33;;;;;;;10.00;2.05;;;;;;;;;;5076235;28;20035;-73
2022/11/04 11:25:17;;;;;;;10.27;2.33;;;;;;;;;;5078971;28;20466;-73
2022/11/04 11:27:51;;;;;;;6.70;2.30;;;;;;;;;;5080893;28;20031;-74
2022/11/04 11:30:24;;;;;;;8.48;2.35;;;;;;;;;;5077087;28;20119;-74
2022/11/04 11:32:54;;;;;;;6.47;1.65;;;;;;;;;;5084185;28;20036;-74
2022/11/04 11:35:22;;;;;;;6.00;2.08;;;;;;;;;;5083032;28;20028;-73
2022/11/04 11:37:49;;;;;;;7.47;2.70;;;;;;;;;;5085888;28;20035;-74
2022/11/04 11:40:30;;;;;;;5.68;2.08;;;;;;;;;;5077630;28;20400;-73
2022/11/04 11:42:57;;;;;;;6.07;2.17;;;;;;;;;;5090126;28;20024;-74
2022/11/04 11:45:24;;;;;;;7.10;2.08;;;;;;;;;;5086297;28;20385;-74
2022/11/04 11:47:53;;;;;;;3.78;0.98;;;;;;;;;;5083826;28;20035;-73
2022/11/04 11:50:28;;;;;;;8.90;1.30;;;;;;;;;;5078584;28;20020;-74
2022/11/04 11:53:06;;;;;;;5.25;1.80;;;;;;;;;;5084987;28;20028;-73
2022/11/04 11:55:36;;;;;;;7.18;2.35;;;;;;;;;;5083430;28;20115;-73
2022/11/04 11:58:08;;;;;;;11.50;3.65;;;;;;;;;;5083000;28;20039;-73
2022/11/04 12:00:37;;;;;;;9.65;2.80;;;;;;;;;;5076122;28;20037;-73
2022/11/04 12:03:22;;;;;;;11.30;3.40;;;;;;;;;;5077220;28;20075;-73
2022/11/04 12:05:59;;;;;;;9.63;2.25;;;;;;;;;;5079518;28;20500;-73
2022/11/04 12:08:34;;;;;;;9.75;2.72;;;;;;;;;;5082340;28;20039;-73
2022/11/04 12:11:05;;;;;;;8.10;1.63;;;;;;;;;;5076455;28;20032;-73
2022/11/04 12:13:36;;;;;;;4.05;1.25;;;;;;;;;;5079148;28;20028;-73
2022/11/04 12:16:11;;;;;;;7.20;1.20;;;;;;;;;;5074811;28;20020;-73
2022/11/04 12:18:56;;;;;;;3.03;0.73;;;;;;;;;;5074156;28;20135;-73
2022/11/04 12:21:32;;;;;;;4.50;0.80;;;;;;;;;;5078044;28;20036;-73
2022/11/04 12:24:05;;;;;;;6.03;0.70;;;;;;;;;;5089261;28;20036;-73
2022/11/04 12:26:34;;;;;;;2.45;0.60;;;;;;;;;;5079905;28;20023;-73
2022/11/04 12:29:19;;;;;;;4.82;0.82;;;;;;;;;;5080387;28;20603;-74
2022/11/04 12:31:48;;;;;;;3.13;0.95;;;;;;;;;;5077354;28;20782;-73
2022/11/04 12:34:14;;;;;;;5.70;1.60;;;;;;;;;;5088977;28;20032;-73
2022/11/04 12:36:47;;;;;;;5.88;1.58;;;;;;;;;;5074584;28;20488;-73
2022/11/04 12:39:22;;;;;;;9.35;1.75;;;;;;;;;;5083097;28;20032;-73
2022/11/04 12:41:56;;;;;;;9.02;1.48;;;;;;;;;;5078619;28;20036;-73
2022/11/04 12:44:41;;;;;;;3.55;1.15;;;;;;;;;;5080510;28;20044;-73
2022/11/04 12:47:15;;;;;;;3.92;1.02;;;;;;;;;;5079355;28;20053;-73
2022/11/04 12:49:41;;;;;;;5.47;1.60;;;;;;;;;;5085663;28;20084;-73
2022/11/04 12:52:22;;;;;;;10.52;1.80;;;;;;;;;;5084849;28;20235;-73
2022/11/04 12:55:00;;;;;;;5.85;1.42;;;;;;;;;;5091773;28;20064;-74
2022/11/04 12:57:38;;;;;;;5.80;1.10;;;;;;;;;;5082745;28;20030;-74
2022/11/04 13:00:08;;;;;;;3.10;0.90;;;;;;;;;;5088364;28;20043;-74
2022/11/04 13:02:40;;;;;;;3.22;0.85;;;;;;;;;;5086037;28;20072;-73
2022/11/04 13:05:14;;;;;;;5.63;0.75;;;;;;;;;;5086908;28;20036;-73
2022/11/04 13:07:49;;;;;;;3.38;0.90;;;;;;;;;;5082087;28;20028;-73
2022/11/04 13:10:38;;;;;;;5.68;1.13;;;;;;;;;;5086795;28;20048;-73
2022/11/04 13:13:06;;;;;;;4.55;0.90;;;;;;;;;;5078121;28;20026;-73
2022/11/04 13:15:35;;;;;;;2.83;0.60;;;;;;;;;;5088984;28;20042;-73
2022/11/04 13:18:04;;;;;;;6.25;0.85;;;;;;;;;;5078660;28;20113;-73
2022/11/04 13:20:43;;;;;;;6.07;0.68;;;;;;;;;;5083409;28;20083;-73
2022/11/04 13:23:13;;;;;;;1.90;0.30;;;;;;;;;;5085583;28;20469;-72
2022/11/04 13:25:39;;;;;;;1.00;0.22;;;;;;;;;;5088088;28;20028;-73
2022/11/04 13:28:08;;;;;;;1.63;0.28;;;;;;;;;;5089489;28;20069;-73
2022/11/04 13:30:40;;;;;;;4.13;0.25;;;;;;;;;;5081939;28;20036;-73
2022/11/04 13:33:25;;;;;;;2.08;0.47;;;;;;;;;;5083819;28;20039;-73
2022/11/04 13:36:09;;;;;;;1.30;0.20;;;;;;;;;;5079062;28;20036;-73
2022/11/04 13:38:44;;;;;;;1.95;0.40;;;;;;;;;;5080262;28;20832;-72
2022/11/04 13:41:12;;;;;;;2.95;0.85;;;;;;;;;;5083170;28;20132;-73
2022/11/04 13:43:41;;;;;;;2.70;0.63;;;;;;;;;;5083793;28;20024;-73
2022/11/04 13:46:07;;;;;;;1.80;0.50;;;;;;;;;;5078531;28;20079;-73
2022/11/04 13:48:36;;;;;;;3.42;0.30;;;;;;;;;;5082885;28;20067;-73
2022/11/04 13:51:06;;;;;;;2.75;0.43;;;;;;;;;;5075017;28;20462;-73
2022/11/04 13:53:43;;;;;;;4.18;1.10;;;;;;;;;;5077095;28;20031;-73
2022/11/04 13:56:10;;;;;;;6.97;2.00;;;;;;;;;;5086159;28;20468;-72
2022/11/04 13:58:37;;;;;;;6.15;1.50;;;;;;;;;;5081316;28;20468;-73
2022/11/04 14:01:09;;;;;;;4.28;1.40;;;;;;;;;;5076064;28;20036;-73
2022/11/04 14:03:35;;;;;;;4.00;1.15;;;;;;;;;;5088470;28;20064;-72
2022/11/04 14:06:02;;;;;;;3.63;0.50;;;;;;;;;;5083467;28;20032;-72
2022/11/04 14:08:28;;;;;;;2.10;0.50;;;;;;;;;;5082475;28;20024;-72
2022/11/04 14:11:03;;;;;;;3.17;0.50;;;;;;;;;;5086607;28;20033;-73
2022/11/04 14:13:33;;;;;;;3.80;1.00;;;;;;;;;;5086181;28;20535;-73
2022/11/04 14:15:59;;;;;;;3.47;1.10;;;;;;;;;;5089037;28;20035;-73
2022/11/04 14:18:27;;;;;;;2.97;0.70;;;;;;;;;;5086582;28;20103;-73
2022/11/04 14:21:02;;;;;;;4.03;0.80;;;;;;;;;;5085760;28;20046;-73
2022/11/04 14:23:28;;;;;;;3.85;1.38;;;;;;;;;;5091648;28;20055;-73
2022/11/04 14:26:00;;;;;;;5.25;1.30;;;;;;;;;;5080854;28;20421;-74
2022/11/04 14:28:27;;;;;;;2.97;0.73;;;;;;;;;;5080546;28;20170;-73
2022/11/04 14:31:01;;;;;;;1.15;0.43;;;;;;;;;;5081610;28;20036;-73
2022/11/04 14:33:29;;;;;;;1.73;0.40;;;;;;;;;;5080866;28;20070;-73
2022/11/04 14:35:57;;;;;;;2.13;0.50;;;;;;;;;;5078978;28;20655;-72
2022/11/04 14:38:33;;;;;;;3.70;0.70;;;;;;;;;;5077724;28;20016;-72
2022/11/04 14:41:13;;;;;;;2.25;0.45;;;;;;;;;;5072671;28;20044;-73
2022/11/04 14:43:41;;;;;;;5.60;0.50;;;;;;;;;;5082716;28;20108;-73
2022/11/04 14:46:08;;;;;;;1.98;0.52;;;;;;;;;;5088029;28;20553;-73
2022/11/04 14:48:34;;;;;;;7.93;2.42;;;;;;;;;;5078376;28;20027;-72
2022/11/04 14:51:00;;;;;;;5.15;0.75;;;;;;;;;;5082664;28;20064;-73
2022/11/04 14:53:32;;;;;;;4.05;1.33;;;;;;;;;;5082934;28;20073;-72
2022/11/04 14:56:04;;;;;;;4.05;0.77;;;;;;;;;;5084777;28;20035;-73
2022/11/04 14:58:29;;;;;;;1.70;0.68;;;;;;;;;;5073629;28;20073;-72
2022/11/04 15:00:58;;;;;;;4.03;1.00;;;;;;;;;;5084910;28;20031;-73
2022/11/04 15:03:26;;;;;;;3.50;1.02;;;;;;;;;;5074030;28;20123;-72
2022/11/04 15:05:56;;;;;;;2.00;0.60;;;;;;;;;;5083627;28;20115;-73
2022/11/04 15:08:28;;;;;;;1.88;0.50;;;;;;;;;;5080399;28;20028;-73
2022/11/04 15:11:02;;;;;;;2.28;0.40;;;;;;;;;;5078363;28;20032;-73
2022/11/04 15:13:28;;;;;;;2.13;0.30;;;;;;;;;;5082145;28;20028;-72
2022/11/04 15:15:55;;;;;;;1.73;0.40;;;;;;;;;;5088834;28;20036;-73
2022/11/04 15:18:23;;;;;;;3.97;1.00;;;;;;;;;;5087638;28;20025;-72
2022/11/04 15:20:51;;;;;;;4.68;1.48;;;;;;;;;;5080645;28;20055;-72
2022/11/04 15:23:22;;;;;;;3.67;1.90;;;;;;;;;;5080902;28;20245;-72
2022/11/04 15:25:49;;;;;;;3.65;1.38;;;;;;;;;;5082439;28;20154;-72
2022/11/04 15:28:35;;;;;;;3.47;1.05;;;;;;;;;;5075615;28;20028;-73
2022/11/04 15:31:04;;;;;;;4.38;1.45;;;;;;;;;;5083402;28;20108;-73
2022/11/04 15:33:32;;;;;;;8.65;2.60;;;;;;;;;;5081419;28;20028;-73
2022/11/04 15:35:58;;;;;;;10.32;5.20;;;;;;;;;;5082485;28;20031;-72
2022/11/04 15:38:25;;;;;;;15.60;7.20;;;;;;;;;;5079542;28;20029;-72
2022/11/04 15:40:51;;;;;;;13.82;6.95;;;;;;;;;;5076971;28;20061;-73
2022/11/04 15:43:18;;;;;;;9.45;5.25;;;;;;;;;;5089361;28;20047;-72
2022/11/04 15:45:44;;;;;;;6.68;2.88;;;;;;;;;;5082968;28;20124;-72
2022/11/04 15:48:27;;;;;;;4.68;1.30;;;;;;;;;;5087919;28;20032;-73
2022/11/04 15:51:13;;;;;;;7.47;3.03;;;;;;;;;;5072240;28;20127;-72
2022/11/04 15:53:50;;;;;;;10.40;3.78;;;;;;;;;;5081186;28;20032;-72
2022/11/04 15:56:19;;;;;;;7.53;2.65;;;;;;;;;;5082643;28;20032;-72